Portada
METAR-TAF:

METAR-TAF

Aeroports :

Natal, Rio Grande do Norte, Brasil

latitud: 05-55S, longitud: 035-15W, altitud: 52 m

Observació

L'informe es va fer fa 34 minuts, a les 12:00 UTC
Vent 11 kt del Sud
Temperatura 27°C
Humitat 66%
Pressió 1016 hPa
Visibilitat 10 km o més
Cel ennuvolat a una alçada de 2300 ft

METAR: SBNT 161200Z 17011KT 9999 BKN023 27/20 Q1016

Hora: 09:34 (12:34 UTC)

Pronòstic

L'informe es va fer fa 2 hores i 34 minuts, a les 10:00 UTC
Pronòstic vàlid del 16 a les 12 UTC al 16 a les 24 UTC
Vent 8 kt del Sud/Sud-Oest
Visibilitat 10 km o més
Escasses núvols a una alçada de 2000 ft
Evolucionant progressivament
l' 16 a les 13 UTC al 16 a les 15 UTC
Vent 15 kt del Sud-Est
Núvols disperses a una alçada de 2300 ft
Escasses núvols a una alçada de 2800 ft, Cumulus congestus.

TAF: SBNT 161000Z 1612/1624 20008KT 9999 FEW020 TN25/1612Z TX29/1615Z BECMG 1613/1615 13015KT SCT023 FEW028TCU RMK PAZ

Observacions i pronòstics meteorològics de més de 4000 aeroports (METAR i TAF).

Les estacions disponibles són els punts grocs i vermells al mapa.

Posi el ratolí al punt desitjat per veure el nom de l'estació.

Feu clic per veure les observacions i els pronòstics meteorològics.

Per canviar el mapa: feu clic els botons verds amb una creu de color negre per apropar; al botó verd amb un guió per allunyar la imatge; o en les fletxes verdes per a mapes adjacents.


METAR-TAF: